Forseti — V2PV4 — position and weather

sailwx.info

Track history (hours):
 
Tides and Currents Weather Stations Pressure Air Temp Water Temp Dewpoint Dewpoint Depression Visibility Wind Speed Wind Dir Waves Ship Positions

Forseti

Last reported at 2015-Apr-14 17:08 UTC. Time now 2015-Apr-19 09:29 UTC.
Position N 55°12' W 001°18'.

Length 85 m; draft 4.3 m.

Type: Cargo ship. MMSI: 304010297.

Date/timePositionNaut miles runAvg speedWind from/ knotsBaromVisibWave heightAir tempDewpointWater temp
2015-Apr-14 17:08N 55°12' W 001°18'6 9.8
2015-Apr-14 16:33N 55°07' W 001°16'10 9.7
2015-Apr-14 15:33N 54°57' W 001°13'9 9.4
2015-Apr-14 14:33N 54°48' W 001°10'9 9.0
2015-Apr-14 13:32N 54°39' W 001°09'5 4.5
2015-Apr-14 12:29N 54°35' W 001°14'0 0.0
2015-Apr-14 11:17N 54°35' W 001°14'0 0.0
2015-Apr-14 10:29N 54°35' W 001°14'0 0.0
2015-Apr-14 09:29N 54°35' W 001°14'0 0.0
2015-Apr-14 08:29N 54°35' W 001°14'0 0.0
2015-Apr-14 07:20N 54°35' W 001°14'0 0.0
2015-Apr-14 06:17N 54°35' W 001°14'0 0.0
2015-Apr-14 05:32N 54°35' W 001°14'0 0.0
2015-Apr-13 17:25N 54°35' W 001°14'0 0.0
2015-Apr-13 16:25N 54°35' W 001°14'0 0.0
2015-Apr-13 15:25N 54°35' W 001°14'0 0.0
2015-Apr-13 14:25N 54°35' W 001°14'0 0.0
2015-Apr-13 13:28N 54°35' W 001°14'0 0.0
2015-Apr-13 12:28N 54°35' W 001°14'0 0.0
2015-Apr-13 11:31N 54°35' W 001°14'0 0.0
2015-Apr-13 10:28N 54°35' W 001°14'0 0.0
2015-Apr-13 09:31N 54°35' W 001°14'0 0.0
2015-Apr-13 08:19N 54°35' W 001°14'0 0.0
2015-Apr-13 07:19N 54°35' W 001°14'0 0.0
2015-Apr-13 06:31N 54°35' W 001°14'0 0.0
2015-Apr-12 13:31N 54°35' W 001°14'0 0.0
2015-Apr-12 12:04N 54°35' W 001°14'0 0.0
2015-Apr-12 11:16N 54°35' W 001°14'0 0.0
2015-Apr-12 10:19N 54°35' W 001°14'0 0.0
2015-Apr-12 09:34N 54°35' W 001°14'0 0.0
2015-Apr-12 08:30N 54°35' W 001°14'0 0.0
2015-Apr-12 07:30N 54°35' W 001°14'7 0.5
2015-Apr-11 17:32N 54°41' W 001°05'1 0.9
2015-Apr-11 16:31N 54°41' W 001°04'0 0.0
2015-Apr-11 15:31N 54°41' W 001°04'0 0.0
2015-Apr-11 14:29N 54°41' W 001°04'0 0.1
2015-Apr-11 13:31N 54°41' W 001°04'7 7.3
2015-Apr-11 12:33N 54°45' W 000°54'8 7.8
2015-Apr-11 11:33N 54°48' W 000°42'8 8.4
2015-Apr-11 10:33N 54°52' W 000°29'8 8.0
2015-Apr-11 09:33N 54°56' W 000°16'299 8.5
2015-Apr-09 22:20N 57°19' E 007°35'17 8.5
2015-Apr-09 20:17N 57°27' E 008°04'15 8.8
2015-Apr-09 18:33N 57°34' E 008°29'26 8.6
2015-Apr-09 15:32N 57°46' E 009°12'34 8.1
2015-Apr-09 11:21N 57°48' E 010°15'8 8.1
2015-Apr-09 10:24N 57°49' E 010°30'7 8.3
2015-Apr-09 09:33N 57°49' E 010°43'8 8.1
2015-Apr-09 08:33N 57°44' E 010°55'8 8.4
2015-Apr-09 07:33N 57°39' E 011°07'9 9.0
2015-Apr-09 06:33N 57°33' E 011°19'9 9.3
2015-Apr-09 05:33N 57°25' E 011°29'10 9.8
2015-Apr-09 04:33N 57°16' E 011°35'9 9.3
2015-Apr-09 03:33N 57°07' E 011°41'10 9.7
2015-Apr-09 02:33N 56°58' E 011°47'10 9.7
2015-Apr-09 01:33N 56°49' E 011°53'9 9.3
2015-Apr-09 00:33N 56°40' E 011°57'10 9.4
2015-Apr-08 23:32N 56°31' E 012°03'9 9.5
2015-Apr-08 22:33N 56°23' E 012°11'10 9.8
2015-Apr-08 21:33N 56°15' E 012°22'1010.0
2015-Apr-08 20:33N 56°07' E 012°33'1010.4
2015-Apr-08 19:33N 55°58' E 012°42'9 9.3
2015-Apr-08 18:33N 55°49' E 012°43'10 9.7
2015-Apr-08 17:33N 55°39' E 012°42'9 9.4
2015-Apr-08 16:33N 55°30' E 012°43'9 9.5
2015-Apr-08 15:33N 55°20' E 012°41'9 8.6
2015-Apr-08 14:33N 55°16' E 012°54'10 9.6
2015-Apr-08 13:32N 55°16' E 013°11'21 9.4
2015-Apr-08 11:15N 55°14' E 013°49'24 8.5
2015-Apr-08 08:26N 55°22' E 014°29'8 8.7
2015-Apr-08 07:33N 55°26' E 014°40'  
2015-Apr-04 22:24N 54°60' E 015°35'8 9.7
2015-Apr-04 21:33N 54°58' E 015°21'9 9.5
2015-Apr-04 20:33N 54°56' E 015°05'10 9.6
2015-Apr-04 19:33N 54°53' E 014°49'9 9.5
2015-Apr-04 18:33N 54°52' E 014°33'9 9.5
2015-Apr-04 17:34N 54°50' E 014°16'  
Track history (hours):
 
Tides and Currents Weather Stations Pressure Air Temp Water Temp Dewpoint Dewpoint Depression Visibility Wind Speed Wind Dir Waves Ship Positions

Forseti

Last reported at 2015-Apr-14 17:08 UTC. Time now 2015-Apr-19 09:29 UTC.
Position N 55°12' W 001°18'.

Length 85 m; draft 4.3 m.

Type: Cargo ship. MMSI: 304010297.

Date/timePositionNaut miles runAvg speedWind from/ knotsBaromVisibWave heightAir tempDewpointWater temp
2015-Apr-14 17:08N 55°12' W 001°18'6 9.8
2015-Apr-14 16:33N 55°07' W 001°16'10 9.7
2015-Apr-14 15:33N 54°57' W 001°13'9 9.4
2015-Apr-14 14:33N 54°48' W 001°10'9 9.0
2015-Apr-14 13:32N 54°39' W 001°09'5 4.5
2015-Apr-14 12:29N 54°35' W 001°14'0 0.0
2015-Apr-14 11:17N 54°35' W 001°14'0 0.0
2015-Apr-14 10:29N 54°35' W 001°14'0 0.0
2015-Apr-14 09:29N 54°35' W 001°14'0 0.0
2015-Apr-14 08:29N 54°35' W 001°14'0 0.0
2015-Apr-14 07:20N 54°35' W 001°14'0 0.0
2015-Apr-14 06:17N 54°35' W 001°14'0 0.0
2015-Apr-14 05:32N 54°35' W 001°14'0 0.0
2015-Apr-13 17:25N 54°35' W 001°14'0 0.0
2015-Apr-13 16:25N 54°35' W 001°14'0 0.0
2015-Apr-13 15:25N 54°35' W 001°14'0 0.0
2015-Apr-13 14:25N 54°35' W 001°14'0 0.0
2015-Apr-13 13:28N 54°35' W 001°14'0 0.0
2015-Apr-13 12:28N 54°35' W 001°14'0 0.0
2015-Apr-13 11:31N 54°35' W 001°14'0 0.0
2015-Apr-13 10:28N 54°35' W 001°14'0 0.0
2015-Apr-13 09:31N 54°35' W 001°14'0 0.0
2015-Apr-13 08:19N 54°35' W 001°14'0 0.0
2015-Apr-13 07:19N 54°35' W 001°14'0 0.0
2015-Apr-13 06:31N 54°35' W 001°14'0 0.0
2015-Apr-12 13:31N 54°35' W 001°14'0 0.0
2015-Apr-12 12:04N 54°35' W 001°14'0 0.0
2015-Apr-12 11:16N 54°35' W 001°14'0 0.0
2015-Apr-12 10:19N 54°35' W 001°14'0 0.0
2015-Apr-12 09:34N 54°35' W 001°14'0 0.0
2015-Apr-12 08:30N 54°35' W 001°14'0 0.0
2015-Apr-12 07:30N 54°35' W 001°14'7 0.5
2015-Apr-11 17:32N 54°41' W 001°05'1 0.9
2015-Apr-11 16:31N 54°41' W 001°04'0 0.0
2015-Apr-11 15:31N 54°41' W 001°04'0 0.0
2015-Apr-11 14:29N 54°41' W 001°04'0 0.1
2015-Apr-11 13:31N 54°41' W 001°04'7 7.3
2015-Apr-11 12:33N 54°45' W 000°54'8 7.8
2015-Apr-11 11:33N 54°48' W 000°42'8 8.4
2015-Apr-11 10:33N 54°52' W 000°29'8 8.0
2015-Apr-11 09:33N 54°56' W 000°16'299 8.5
2015-Apr-09 22:20N 57°19' E 007°35'17 8.5
2015-Apr-09 20:17N 57°27' E 008°04'15 8.8
2015-Apr-09 18:33N 57°34' E 008°29'26 8.6
2015-Apr-09 15:32N 57°46' E 009°12'34 8.1
2015-Apr-09 11:21N 57°48' E 010°15'8 8.1
2015-Apr-09 10:24N 57°49' E 010°30'7 8.3
2015-Apr-09 09:33N 57°49' E 010°43'8 8.1
2015-Apr-09 08:33N 57°44' E 010°55'8 8.4
2015-Apr-09 07:33N 57°39' E 011°07'9 9.0
2015-Apr-09 06:33N 57°33' E 011°19'9 9.3
2015-Apr-09 05:33N 57°25' E 011°29'10 9.8
2015-Apr-09 04:33N 57°16' E 011°35'9 9.3
2015-Apr-09 03:33N 57°07' E 011°41'10 9.7
2015-Apr-09 02:33N 56°58' E 011°47'10 9.7
2015-Apr-09 01:33N 56°49' E 011°53'9 9.3
2015-Apr-09 00:33N 56°40' E 011°57'10 9.4
2015-Apr-08 23:32N 56°31' E 012°03'9 9.5
2015-Apr-08 22:33N 56°23' E 012°11'10 9.8
2015-Apr-08 21:33N 56°15' E 012°22'1010.0
2015-Apr-08 20:33N 56°07' E 012°33'1010.4
2015-Apr-08 19:33N 55°58' E 012°42'9 9.3
2015-Apr-08 18:33N 55°49' E 012°43'10 9.7
2015-Apr-08 17:33N 55°39' E 012°42'9 9.4
2015-Apr-08 16:33N 55°30' E 012°43'9 9.5
2015-Apr-08 15:33N 55°20' E 012°41'9 8.6
2015-Apr-08 14:33N 55°16' E 012°54'10 9.6
2015-Apr-08 13:32N 55°16' E 013°11'21 9.4
2015-Apr-08 11:15N 55°14' E 013°49'24 8.5
2015-Apr-08 08:26N 55°22' E 014°29'8 8.7
2015-Apr-08 07:33N 55°26' E 014°40'  
2015-Apr-04 22:24N 54°60' E 015°35'8 9.7
2015-Apr-04 21:33N 54°58' E 015°21'9 9.5
2015-Apr-04 20:33N 54°56' E 015°05'10 9.6
2015-Apr-04 19:33N 54°53' E 014°49'9 9.5
2015-Apr-04 18:33N 54°52' E 014°33'9 9.5
2015-Apr-04 17:34N 54°50' E 014°16'  

Dump ship's entire track history